Time;durP1;ratioP1;P1;durP2;ratioP2;P2;SDS_P1;SDS_P2;PMS_P1;PMS_P2;Temp;Humidity;BMP_temperature;BMP_pressure;BME280_temperature;BME280_humidity;BME280_pressure;Samples;Min_cycle;Max_cycle;Signal;HPM_P1;HPM_P2
2023/06/19 00:01:13;;;;;;;5.10;4.70;;;27.80;42.40;;;;;;5029344;28;20455;-67
2023/06/19 00:03:41;;;;;;;4.80;4.50;;;27.80;42.40;;;;;;5024439;28;20440;-68
2023/06/19 00:06:12;;;;;;;4.60;4.20;;;27.80;42.40;;;;;;5032781;28;20536;-67
2023/06/19 00:08:42;;;;;;;5.27;4.87;;;27.80;42.40;;;;;;5030139;28;20465;-67
2023/06/19 00:11:10;;;;;;;4.57;4.17;;;27.80;42.80;;;;;;5020559;28;20968;-68
2023/06/19 00:13:39;;;;;;;4.57;4.27;;;27.80;42.40;;;;;;5039664;28;20453;-67
2023/06/19 00:16:07;;;;;;;5.07;4.67;;;27.80;42.40;;;;;;5021726;28;20574;-67
2023/06/19 00:18:39;;;;;;;4.27;4.00;;;27.80;42.30;;;;;;5026092;28;20526;-67
2023/06/19 00:21:09;;;;;;;4.47;4.17;;;27.80;42.40;;;;;;5025292;28;20457;-67
2023/06/19 00:23:38;;;;;;;4.67;4.37;;;27.80;42.30;;;;;;5021199;28;20436;-67
2023/06/19 00:26:08;;;;;;;4.10;3.80;;;27.80;42.40;;;;;;5016320;28;20495;-68
2023/06/19 00:28:38;;;;;;;4.20;3.90;;;27.80;42.40;;;;;;5033816;28;20940;-68
2023/06/19 00:31:08;;;;;;;4.87;4.57;;;27.80;42.40;;;;;;5033917;28;20441;-68
2023/06/19 00:33:37;;;;;;;4.53;4.20;;;27.80;42.40;;;;;;5030273;28;20796;-67
2023/06/19 00:36:10;;;;;;;4.23;3.93;;;27.80;42.50;;;;;;5023875;28;20705;-66
2023/06/19 00:38:39;;;;;;;4.93;4.53;;;27.80;42.40;;;;;;5031493;28;20909;-67
2023/06/19 00:41:09;;;;;;;4.13;3.83;;;27.80;42.40;;;;;;5028654;28;20452;-68
2023/06/19 00:43:37;;;;;;;4.57;4.17;;;27.80;42.40;;;;;;5012827;28;20491;-67
2023/06/19 00:46:06;;;;;;;5.43;5.13;;;27.80;42.50;;;;;;5028363;28;21016;-67
2023/06/19 00:48:35;;;;;;;4.70;4.30;;;27.80;42.50;;;;;;5031154;28;20468;-67
2023/06/19 00:51:04;;;;;;;5.60;5.20;;;27.80;42.50;;;;;;5027419;28;21033;-67
2023/06/19 00:53:34;;;;;;;5.50;5.10;;;27.80;42.50;;;;;;5019456;28;20460;-67
2023/06/19 00:56:05;;;;;;;4.53;4.23;;;27.80;42.50;;;;;;5016716;28;20436;-68
2023/06/19 00:58:36;;;;;;;5.27;4.83;;;27.80;42.60;;;;;;5020508;28;20480;-67
2023/06/19 01:01:05;;;;;;;4.97;4.57;;;27.80;42.60;;;;;;5021735;28;20451;-68
2023/06/19 01:03:38;;;;;;;5.47;5.07;;;27.80;42.40;;;;;;5034426;28;20456;-67
2023/06/19 01:06:09;;;;;;;5.33;4.93;;;27.80;42.40;;;;;;5039903;28;21094;-67
2023/06/19 01:08:51;;;;;;;4.63;4.33;;;27.80;42.40;;;;;;5029448;28;20487;-67
2023/06/19 01:11:22;;;;;;;4.97;4.47;;;27.80;42.40;;;;;;5037711;28;20440;-67
2023/06/19 01:13:59;;;;;;;4.83;4.53;;;27.80;42.40;;;;;;5039458;28;20443;-67
2023/06/19 01:16:29;;;;;;;5.20;4.80;;;27.70;42.20;;;;;;5008720;28;20476;-68
2023/06/19 01:18:59;;;;;;;4.73;4.33;;;27.80;42.40;;;;;;5022533;28;20525;-65
2023/06/19 01:21:27;;;;;;;5.40;4.97;;;27.80;42.40;;;;;;5021839;28;20937;-67
2023/06/19 01:23:57;;;;;;;4.63;4.33;;;27.80;42.40;;;;;;5036528;28;20468;-67
2023/06/19 01:26:27;;;;;;;4.70;4.37;;;27.80;42.60;;;;;;5019920;28;20448;-67
2023/06/19 01:28:58;;;;;;;5.00;4.50;;;27.70;42.60;;;;;;5029556;28;20475;-67
2023/06/19 01:31:31;;;;;;;4.80;4.50;;;27.70;42.40;;;;;;5029492;28;20433;-67
2023/06/19 01:34:02;;;;;;;4.77;4.47;;;27.70;42.70;;;;;;5031025;28;20988;-67
2023/06/19 01:36:32;;;;;;;4.83;4.53;;;27.70;42.60;;;;;;5021218;28;20801;-67
2023/06/19 01:39:03;;;;;;;5.20;4.80;;;27.70;42.60;;;;;;5038873;28;20499;-67
2023/06/19 01:41:33;;;;;;;5.30;4.90;;;27.70;42.40;;;;;;5035261;28;20835;-67
2023/06/19 01:44:03;;;;;;;5.30;4.90;;;27.70;42.70;;;;;;5022568;28;20482;-67
2023/06/19 01:46:31;;;;;;;5.07;4.67;;;27.70;42.50;;;;;;5018262;28;20464;-67
2023/06/19 01:49:00;;;;;;;4.77;4.40;;;27.70;42.40;;;;;;5034581;28;20996;-68
2023/06/19 01:51:28;;;;;;;5.57;5.10;;;27.70;42.60;;;;;;5036761;28;20495;-67
2023/06/19 01:53:57;;;;;;;5.87;5.40;;;27.70;42.50;;;;;;5030849;28;20571;-67
2023/06/19 01:56:27;;;;;;;4.87;4.47;;;27.70;42.60;;;;;;5026744;28;22113;-67
2023/06/19 01:58:56;;;;;;;4.10;3.80;;;27.70;42.60;;;;;;5029741;28;20844;-67
2023/06/19 02:01:24;;;;;;;3.63;3.43;;;27.70;42.70;;;;;;5023143;28;20535;-67
2023/06/19 02:03:53;;;;;;;4.70;4.40;;;27.70;42.60;;;;;;5025390;28;20472;-67
2023/06/19 02:06:22;;;;;;;6.30;5.80;;;27.70;42.70;;;;;;5041695;28;20491;-67
2023/06/19 02:08:50;;;;;;;4.47;4.17;;;27.70;42.60;;;;;;5018722;28;20466;-68
2023/06/19 02:11:19;;;;;;;4.20;3.90;;;27.70;42.60;;;;;;5015118;28;20454;-67
2023/06/19 02:13:49;;;;;;;4.27;3.97;;;27.70;42.60;;;;;;5026726;28;20447;-67
2023/06/19 02:16:18;;;;;;;4.70;4.40;;;27.70;42.60;;;;;;5030580;28;20458;-68
2023/06/19 02:18:46;;;;;;;4.60;4.20;;;27.60;42.50;;;;;;5025808;28;20455;-68
2023/06/19 02:21:15;;;;;;;4.33;4.03;;;27.60;42.60;;;;;;5046660;28;20474;-67
2023/06/19 02:23:44;;;;;;;4.27;3.97;;;27.60;42.80;;;;;;5030623;28;20487;-68
2023/06/19 02:26:12;;;;;;;4.07;3.73;;;27.70;42.70;;;;;;5040075;28;20551;-67
2023/06/19 02:28:41;;;;;;;4.23;3.60;;;27.60;42.70;;;;;;5029650;28;20481;-67
2023/06/19 02:31:10;;;;;;;4.00;3.70;;;27.60;42.70;;;;;;5028855;28;20442;-66
2023/06/19 02:33:39;;;;;;;4.70;4.30;;;27.60;42.70;;;;;;5025703;28;20469;-67
2023/06/19 02:36:07;;;;;;;4.40;4.00;;;27.60;42.80;;;;;;5033626;28;20464;-67
2023/06/19 02:38:36;;;;;;;4.67;4.37;;;27.60;42.80;;;;;;5027735;28;20533;-67
2023/06/19 02:41:04;;;;;;;5.33;4.93;;;27.60;42.90;;;;;;5030726;28;20454;-67
2023/06/19 02:43:33;;;;;;;4.73;4.33;;;27.60;42.80;;;;;;5037336;28;20510;-68
2023/06/19 02:46:02;;;;;;;4.87;4.47;;;27.60;42.90;;;;;;5040922;28;20799;-67
2023/06/19 02:48:31;;;;;;;4.77;4.47;;;27.60;43.00;;;;;;5019864;28;20450;-67
2023/06/19 02:51:02;;;;;;;4.37;4.07;;;27.60;42.90;;;;;;5022935;28;21000;-68
2023/06/19 02:53:30;;;;;;;4.27;3.87;;;27.60;43.00;;;;;;5018750;28;20507;-67
2023/06/19 02:55:59;;;;;;;3.77;3.53;;;27.60;43.10;;;;;;5025626;28;20456;-67
2023/06/19 02:58:31;;;;;;;4.70;4.40;;;27.60;43.40;;;;;;5025849;28;20447;-68
2023/06/19 03:00:59;;;;;;;4.83;4.27;;;27.60;43.30;;;;;;5028587;28;20470;-67
2023/06/19 03:03:28;;;;;;;4.47;4.17;;;27.60;43.40;;;;;;5012503;28;20480;-67
2023/06/19 03:06:00;;;;;;;3.93;3.63;;;27.60;43.40;;;;;;5035925;28;20449;-67
2023/06/19 03:08:29;;;;;;;3.70;3.47;;;27.50;43.40;;;;;;5041398;28;20480;-66
2023/06/19 03:10:58;;;;;;;4.27;3.97;;;27.60;43.60;;;;;;5039285;28;20697;-67
2023/06/19 03:13:26;;;;;;;4.47;4.17;;;27.60;43.40;;;;;;5028306;28;20479;-67
2023/06/19 03:15:54;;;;;;;3.97;3.77;;;27.50;43.30;;;;;;5021989;28;20467;-65
2023/06/19 03:18:23;;;;;;;4.10;3.80;;;27.50;43.50;;;;;;5013426;28;20545;-67
2023/06/19 03:20:51;;;;;;;4.00;3.70;;;27.50;43.50;;;;;;5037516;28;20451;-65
2023/06/19 03:23:21;;;;;;;3.80;3.50;;;27.50;43.60;;;;;;5036458;28;20522;-67
2023/06/19 03:25:49;;;;;;;4.80;4.40;;;27.50;43.50;;;;;;5033345;28;20995;-67
2023/06/19 03:28:18;;;;;;;4.33;4.00;;;27.50;43.60;;;;;;5024939;28;20451;-67
2023/06/19 03:30:46;;;;;;;5.00;4.60;;;27.50;43.70;;;;;;5016746;28;20868;-68
2023/06/19 03:33:19;;;;;;;4.00;3.70;;;27.50;43.70;;;;;;5034460;28;20450;-66
2023/06/19 03:35:47;;;;;;;4.30;4.00;;;27.50;43.70;;;;;;5018224;28;20444;-67
2023/06/19 03:38:37;;;;;;;4.30;4.00;;;27.50;43.70;;;;;;5038865;28;20561;-67
2023/06/19 03:41:06;;;;;;;4.40;4.10;;;27.50;43.70;;;;;;5014465;28;20842;-67
2023/06/19 03:43:34;;;;;;;4.60;4.20;;;27.50;43.80;;;;;;5041645;28;20924;-65
2023/06/19 03:46:04;;;;;;;4.20;3.80;;;27.50;43.80;;;;;;5019062;28;20993;-66
2023/06/19 03:48:32;;;;;;;3.97;3.67;;;27.50;43.90;;;;;;5031743;28;20480;-67
2023/06/19 03:51:02;;;;;;;3.87;3.50;;;27.40;43.80;;;;;;5023693;28;20542;-67
2023/06/19 03:53:30;;;;;;;4.57;3.93;;;27.50;44.00;;;;;;5024045;28;20802;-67
2023/06/19 03:56:00;;;;;;;4.50;4.10;;;27.40;44.00;;;;;;5019787;28;21002;-65
2023/06/19 03:58:28;;;;;;;3.87;3.57;;;27.40;44.00;;;;;;5021149;28;20501;-67
2023/06/19 04:00:57;;;;;;;4.30;4.00;;;27.40;44.00;;;;;;5030347;28;20449;-67
2023/06/19 04:03:25;;;;;;;4.93;3.70;;;27.40;44.30;;;;;;5030448;28;20482;-66
2023/06/19 04:05:53;;;;;;;4.70;4.40;;;27.40;44.00;;;;;;5023986;28;20454;-67
2023/06/19 04:08:22;;;;;;;3.97;3.67;;;27.40;44.10;;;;;;5026838;28;20439;-66
2023/06/19 04:10:50;;;;;;;4.20;3.90;;;27.40;44.20;;;;;;5042664;28;20442;-67
2023/06/19 04:13:20;;;;;;;4.70;4.40;;;27.40;44.30;;;;;;5000299;28;20465;-65
2023/06/19 04:15:49;;;;;;;4.17;3.87;;;27.30;44.20;;;;;;5025558;28;20555;-65
2023/06/19 04:18:18;;;;;;;4.30;4.00;;;27.40;44.40;;;;;;5025939;28;20880;-67
2023/06/19 04:20:47;;;;;;;4.47;4.17;;;27.40;44.40;;;;;;5041488;28;20529;-67
2023/06/19 04:23:15;;;;;;;3.40;3.20;;;27.40;44.50;;;;;;5026265;28;20499;-66
2023/06/19 04:25:44;;;;;;;3.97;3.67;;;27.30;44.50;;;;;;5041224;28;20480;-66
2023/06/19 04:28:12;;;;;;;3.63;3.40;;;27.30;44.50;;;;;;5029652;28;20448;-66
2023/06/19 04:30:42;;;;;;;3.20;3.00;;;27.40;44.50;;;;;;5033500;28;20918;-66
2023/06/19 04:33:11;;;;;;;3.60;3.40;;;27.30;44.60;;;;;;5021133;28;20481;-67
2023/06/19 04:35:40;;;;;;;2.90;2.70;;;27.30;44.60;;;;;;5013809;28;21019;-67
2023/06/19 04:38:12;;;;;;;4.10;3.80;;;27.30;44.50;;;;;;5029019;28;20455;-66
2023/06/19 04:40:43;;;;;;;3.90;3.63;;;27.30;44.50;;;;;;5031160;28;20432;-66
2023/06/19 04:43:12;;;;;;;3.77;3.47;;;27.30;44.70;;;;;;5027593;28;20461;-66
2023/06/19 04:45:42;;;;;;;4.17;3.87;;;27.30;44.70;;;;;;5023443;28;20478;-65
2023/06/19 04:48:11;;;;;;;3.57;3.30;;;27.30;44.70;;;;;;5018345;28;20464;-67
2023/06/19 04:50:39;;;;;;;3.70;3.47;;;27.30;44.80;;;;;;5024709;28;21153;-66
2023/06/19 04:53:08;;;;;;;8.40;3.90;;;27.30;44.80;;;;;;5012884;28;20929;-66
2023/06/19 04:55:37;;;;;;;3.83;3.53;;;27.30;44.80;;;;;;5035706;28;20439;-67
2023/06/19 04:58:05;;;;;;;3.30;3.00;;;27.30;44.70;;;;;;5018176;28;20504;-66
2023/06/19 05:00:34;;;;;;;3.80;3.50;;;27.30;44.80;;;;;;5021229;28;20989;-66
2023/06/19 05:03:03;;;;;;;3.77;3.57;;;27.30;44.80;;;;;;5030308;28;20718;-66
2023/06/19 05:05:32;;;;;;;3.27;3.07;;;27.30;44.80;;;;;;5024495;28;20515;-65
2023/06/19 05:08:02;;;;;;;3.47;3.17;;;27.30;44.90;;;;;;5037687;28;20455;-68
2023/06/19 05:10:30;;;;;;;3.70;3.40;;;27.20;44.80;;;;;;5017952;28;20522;-67
2023/06/19 05:12:59;;;;;;;3.50;3.20;;;27.20;44.90;;;;;;5023593;28;20444;-67
2023/06/19 05:15:28;;;;;;;3.73;3.43;;;27.20;44.90;;;;;;5030006;28;20440;-65
2023/06/19 05:17:56;;;;;;;4.07;3.77;;;27.20;45.00;;;;;;5035817;28;20562;-65
2023/06/19 05:20:27;;;;;;;4.10;3.80;;;27.20;44.90;;;;;;5023891;28;20482;-67
2023/06/19 05:22:55;;;;;;;3.70;3.40;;;27.20;44.90;;;;;;5026128;28;20449;-66
2023/06/19 05:25:24;;;;;;;3.92;3.63;;;27.20;44.90;;;;;;5021470;28;20460;-65
2023/06/19 05:27:52;;;;;;;3.80;3.50;;;27.20;45.00;;;;;;5028196;28;20216;-64
2023/06/19 05:30:21;;;;;;;4.27;3.80;;;27.20;45.10;;;;;;5021386;28;20875;-64
2023/06/19 05:32:50;;;;;;;3.93;3.47;;;27.10;45.10;;;;;;5017056;28;20455;-65
2023/06/19 05:35:18;;;;;;;3.20;3.00;;;27.10;45.10;;;;;;5020529;28;20468;-67
2023/06/19 05:37:48;;;;;;;3.10;2.90;;;27.20;45.10;;;;;;5017243;28;20852;-67
2023/06/19 05:40:17;;;;;;;2.90;2.70;;;27.20;45.10;;;;;;5013788;28;20471;-66
2023/06/19 05:42:45;;;;;;;3.47;3.17;;;27.20;45.10;;;;;;5030143;28;20452;-65
2023/06/19 05:45:14;;;;;;;3.50;3.20;;;27.20;44.90;;;;;;5030425;28;20574;-66
2023/06/19 05:47:42;;;;;;;4.30;3.90;;;27.20;45.00;;;;;;5031211;28;20481;-64
2023/06/19 05:50:11;;;;;;;3.53;3.23;;;27.20;44.80;;;;;;5034638;28;20477;-65
2023/06/19 05:52:43;;;;;;;3.10;2.80;;;27.20;44.70;;;;;;5035860;28;20466;-67
2023/06/19 05:55:13;;;;;;;3.27;3.07;;;27.20;44.60;;;;;;5010887;28;20488;-66
2023/06/19 05:57:41;;;;;;;3.43;3.20;;;27.20;44.50;;;;;;5005874;28;20902;-65
2023/06/19 06:00:14;;;;;;;2.90;2.70;;;27.20;44.60;;;;;;5024266;28;20877;-66
2023/06/19 06:02:42;;;;;;;3.80;3.50;;;27.20;44.40;;;;;;5028065;28;20987;-66
2023/06/19 06:05:10;;;;;;;3.30;3.10;;;27.20;44.40;;;;;;5023793;28;20478;-66
2023/06/19 06:07:39;;;;;;;3.70;3.30;;;27.20;44.40;;;;;;5032813;28;20447;-67
2023/06/19 06:10:10;;;;;;;3.27;2.97;;;27.20;44.30;;;;;;5020049;28;20467;-66
2023/06/19 06:12:39;;;;;;;2.83;2.63;;;27.20;44.30;;;;;;5011745;28;20468;-66
2023/06/19 06:15:09;;;;;;;2.97;2.77;;;27.20;44.50;;;;;;5025676;28;20459;-66
2023/06/19 06:17:37;;;;;;;3.13;2.93;;;27.20;44.20;;;;;;5019217;28;20455;-65
2023/06/19 06:20:11;;;;;;;3.10;2.87;;;27.20;44.20;;;;;;5039948;28;20705;-66
2023/06/19 06:22:40;;;;;;;3.27;2.90;;;27.20;44.40;;;;;;5016825;28;20448;-65
2023/06/19 06:25:11;;;;;;;3.20;2.90;;;27.20;44.40;;;;;;5037066;28;20470;-67
2023/06/19 06:27:43;;;;;;;2.77;2.57;;;27.20;44.30;;;;;;5043739;28;21087;-64
2023/06/19 06:30:12;;;;;;;2.93;2.73;;;27.20;44.40;;;;;;5035538;28;20564;-66
2023/06/19 06:32:41;;;;;;;3.30;3.00;;;27.20;44.30;;;;;;5019607;28;20440;-66
2023/06/19 06:35:10;;;;;;;2.70;2.50;;;27.20;44.40;;;;;;5026718;28;20472;-67
2023/06/19 06:37:38;;;;;;;3.30;3.00;;;27.20;44.30;;;;;;5027815;28;20525;-66
2023/06/19 06:40:10;;;;;;;2.00;1.90;;;27.20;44.40;;;;;;5029700;28;20481;-67
2023/06/19 06:42:39;;;;;;;2.93;2.73;;;27.20;44.30;;;;;;5036014;28;20540;-65
2023/06/19 06:45:11;;;;;;;3.30;2.77;;;27.20;44.20;;;;;;5023810;28;21002;-67
2023/06/19 06:47:39;;;;;;;3.90;2.50;;;27.20;44.30;;;;;;5027612;28;20458;-66
2023/06/19 06:50:09;;;;;;;3.50;3.20;;;27.20;44.30;;;;;;5025677;28;20728;-67
2023/06/19 06:52:38;;;;;;;4.50;2.73;;;27.20;44.40;;;;;;5019619;28;20478;-65
2023/06/19 06:55:09;;;;;;;2.43;2.23;;;27.20;44.40;;;;;;4997723;28;20470;-67
2023/06/19 06:57:38;;;;;;;3.33;3.03;;;27.20;44.50;;;;;;5023953;28;20534;-66
2023/06/19 07:00:11;;;;;;;2.63;2.43;;;27.20;44.50;;;;;;5034505;28;20460;-65
2023/06/19 07:02:40;;;;;;;2.90;2.60;;;27.20;44.50;;;;;;5042600;28;20450;-67
2023/06/19 07:05:10;;;;;;;2.87;2.67;;;27.20;44.50;;;;;;5027727;28;21003;-67
2023/06/19 07:07:39;;;;;;;3.00;2.80;;;27.10;44.50;;;;;;5029477;28;20545;-66
2023/06/19 07:10:08;;;;;;;3.40;3.17;;;27.10;44.50;;;;;;5028099;28;20555;-67
2023/06/19 07:12:44;;;;;;;3.27;2.97;;;27.10;44.40;;;;;;5027584;28;20964;-65
2023/06/19 07:15:14;;;;;;;3.20;2.80;;;27.10;45.60;;;;;;5019988;28;20498;-66
2023/06/19 07:17:44;;;;;;;2.60;2.40;;;27.10;44.60;;;;;;5033441;28;20580;-66
2023/06/19 07:20:13;;;;;;;2.63;2.43;;;27.10;44.60;;;;;;5038827;28;20899;-65
2023/06/19 07:22:42;;;;;;;2.87;2.67;;;27.10;44.60;;;;;;5038114;28;20444;-67
2023/06/19 07:25:12;;;;;;;4.53;2.57;;;27.10;44.70;;;;;;5035591;28;20480;-66
2023/06/19 07:27:41;;;;;;;2.47;2.27;;;27.10;44.60;;;;;;5024598;28;20503;-66
2023/06/19 07:30:11;;;;;;;3.07;2.77;;;27.10;44.70;;;;;;5018111;28;20550;-66
2023/06/19 07:32:44;;;;;;;2.80;2.60;;;27.10;44.80;;;;;;5011783;28;20471;-67
2023/06/19 07:35:12;;;;;;;2.80;2.60;;;27.10;44.70;;;;;;5039159;28;20548;-66
2023/06/19 07:37:41;;;;;;;2.90;2.60;;;27.10;44.60;;;;;;5024426;28;21035;-66
2023/06/19 07:40:10;;;;;;;2.77;2.50;;;27.10;45.10;;;;;;5029490;28;20480;-67
2023/06/19 07:42:39;;;;;;;2.60;2.40;;;27.10;44.80;;;;;;5025661;28;20495;-67
2023/06/19 07:45:13;;;;;;;2.80;2.60;;;27.10;44.80;;;;;;5036511;28;20487;-66
2023/06/19 07:47:41;;;;;;;2.50;2.30;;;27.10;44.80;;;;;;5017864;28;20826;-66
2023/06/19 07:50:11;;;;;;;2.87;2.57;;;27.10;44.80;;;;;;5022426;28;20471;-67
2023/06/19 07:52:40;;;;;;;2.70;2.47;;;27.10;44.70;;;;;;5019749;28;20458;-67
2023/06/19 07:55:09;;;;;;;2.50;2.30;;;27.10;44.60;;;;;;5026241;28;21008;-67
2023/06/19 07:57:37;;;;;;;2.93;2.37;;;27.10;44.60;;;;;;5024747;28;20995;-67
2023/06/19 08:00:11;;;;;;;2.77;2.57;;;27.00;44.60;;;;;;5020732;28;20621;-67
2023/06/19 08:02:39;;;;;;;2.90;2.57;;;27.00;44.70;;;;;;5008497;28;20737;-67
2023/06/19 08:05:09;;;;;;;2.70;2.50;;;27.00;44.60;;;;;;5021796;28;20833;-66
2023/06/19 08:07:39;;;;;;;2.80;2.53;;;27.00;44.60;;;;;;5019310;28;20566;-65
2023/06/19 08:10:08;;;;;;;2.90;2.70;;;27.00;44.60;;;;;;5034813;28;20526;-67
2023/06/19 08:12:42;;;;;;;3.60;2.40;;;27.00;44.70;;;;;;5024733;28;20495;-66
2023/06/19 08:15:11;;;;;;;2.47;2.27;;;27.00;44.80;;;;;;5029353;28;20532;-64
2023/06/19 08:17:40;;;;;;;2.50;2.30;;;27.00;44.80;;;;;;5023834;28;20553;-66
2023/06/19 08:20:09;;;;;;;3.20;2.60;;;27.00;44.80;;;;;;5025488;28;20481;-65
2023/06/19 08:22:39;;;;;;;3.37;2.90;;;27.00;44.80;;;;;;5032181;28;20494;-66
2023/06/19 08:25:08;;;;;;;2.10;1.90;;;27.00;44.80;;;;;;5027877;28;20482;-65
2023/06/19 08:27:37;;;;;;;2.80;2.60;;;27.00;44.80;;;;;;5018602;28;20476;-66
2023/06/19 08:30:06;;;;;;;2.63;2.43;;;27.10;44.90;;;;;;5019181;28;20504;-66
2023/06/19 08:32:35;;;;;;;2.67;2.30;;;27.00;44.80;;;;;;5032356;28;21059;-72
2023/06/19 08:35:04;;;;;;;3.37;2.37;;;27.10;44.80;;;;;;5020130;28;20480;-73
2023/06/19 08:37:32;;;;;;;2.67;2.47;;;27.10;44.80;;;;;;5024334;28;20509;-71
2023/06/19 08:40:03;;;;;;;2.63;2.43;;;27.10;44.90;;;;;;5006643;28;20476;-71
2023/06/19 08:42:32;;;;;;;2.90;2.60;;;27.10;44.90;;;;;;5014908;28;20967;-72
2023/06/19 08:45:00;;;;;;;2.57;2.37;;;27.10;44.90;;;;;;5020522;28;20512;-70
2023/06/19 08:47:31;;;;;;;2.90;2.70;;;27.10;46.20;;;;;;5040577;28;20474;-72
2023/06/19 08:50:00;;;;;;;3.27;2.53;;;27.10;45.00;;;;;;5008791;28;20512;-72
2023/06/19 08:52:30;;;;;;;2.60;2.40;;;27.10;44.90;;;;;;5013696;28;20479;-72
2023/06/19 08:54:58;;;;;;;2.90;2.70;;;27.00;44.90;;;;;;5027577;28;20554;-70
2023/06/19 08:57:39;;;;;;;2.47;2.27;;;27.10;44.90;;;;;;5031149;28;20482;-71
2023/06/19 09:00:10;;;;;;;2.33;2.13;;;27.10;44.90;;;;;;5031315;28;20483;-71
2023/06/19 09:02:41;;;;;;;2.60;2.40;;;27.00;44.90;;;;;;5040071;28;20472;-72
2023/06/19 09:05:13;;;;;;;2.70;2.37;;;27.10;44.90;;;;;;5035865;28;20589;-72
2023/06/19 09:07:42;;;;;;;2.70;2.50;;;27.10;44.60;;;;;;5029122;28;20921;-70
2023/06/19 09:10:16;;;;;;;3.40;3.10;;;27.00;44.60;;;;;;5025806;28;20474;-72
2023/06/19 09:12:59;;;;;;;3.10;2.87;;;27.10;44.70;;;;;;5037184;28;20502;-70
2023/06/19 09:15:32;;;;;;;2.73;2.33;;;27.00;44.60;;;;;;5013264;28;20884;-71
2023/06/19 09:18:04;;;;;;;2.30;2.20;;;27.10;44.70;;;;;;5019093;28;20523;-71
2023/06/19 09:20:33;;;;;;;3.10;2.83;;;27.00;44.80;;;;;;5021947;28;20458;-66
2023/06/19 09:23:02;;;;;;;2.90;2.70;;;27.00;44.80;;;;;;5023896;28;20432;-66
2023/06/19 09:25:32;;;;;;;2.70;2.37;;;27.00;44.70;;;;;;5035414;28;20999;-67
2023/06/19 09:28:02;;;;;;;2.50;2.30;;;27.00;44.80;;;;;;5020921;28;20478;-67
2023/06/19 09:30:30;;;;;;;2.70;2.50;;;27.00;44.60;;;;;;5020696;28;20893;-72
2023/06/19 09:33:07;;;;;;;2.47;2.27;;;27.00;44.60;;;;;;5022335;28;21001;-71
2023/06/19 09:35:36;;;;;;;3.47;3.03;;;27.00;44.50;;;;;;5005853;28;20565;-71
2023/06/19 09:38:05;;;;;;;3.10;2.80;;;27.00;45.80;;;;;;5004867;28;20506;-71
2023/06/19 09:40:34;;;;;;;2.80;2.60;;;27.00;44.60;;;;;;5034051;28;20440;-68
2023/06/19 09:43:05;;;;;;;3.43;3.23;;;27.00;44.60;;;;;;5016079;28;20454;-69
2023/06/19 09:45:35;;;;;;;3.93;3.60;;;27.10;44.60;;;;;;5023502;28;21002;-66
2023/06/19 09:48:04;;;;;;;4.20;3.30;;;27.10;44.00;;;;;;5028806;28;20476;-65
